Time;durP1;ratioP1;P1;durP2;ratioP2;P2;SDS_P1;SDS_P2;PMS_P1;PMS_P2;Temp;Humidity;BMP_temperature;BMP_pressure;BME280_temperature;BME280_humidity;BME280_pressure;Samples;Min_cycle;Max_cycle;Signal;HPM_P1;HPM_P2
2022/11/09 00:00:49;;;;;;;1.38;0.95;;;10.40;1.00;;;;;;5062100;28;20426;-75
2022/11/09 00:03:16;;;;;;;0.80;0.80;;;10.40;1.00;;;;;;5066867;28;20423;-75
2022/11/09 00:05:52;;;;;;;4.18;2.00;;;10.40;1.00;;;;;;5059659;28;20914;-76
2022/11/09 00:08:19;;;;;;;1.42;1.33;;;10.40;20.90;;;;;;5060380;28;20424;-72
2022/11/09 00:10:46;;;;;;;2.10;1.63;;;10.40;99.90;;;;;;5052328;28;20433;-69
2022/11/09 00:13:12;;;;;;;1.10;1.05;;;10.40;1.00;;;;;;5060545;28;20427;-68
2022/11/09 00:15:39;;;;;;;0.60;0.60;;;10.40;41.50;;;;;;5063246;28;20512;-68
2022/11/09 00:18:06;;;;;;;0.73;0.73;;;10.40;99.90;;;;;;5063114;28;20439;-68
2022/11/09 00:20:32;;;;;;;0.80;0.80;;;10.40;99.90;;;;;;5061413;28;20442;-68
2022/11/09 00:22:59;;;;;;;0.90;0.90;;;10.40;1.00;;;;;;5051345;28;20431;-68
2022/11/09 00:25:26;;;;;;;0.80;0.77;;;10.40;1.00;;;;;;5063246;28;20431;-69
2022/11/09 00:27:56;;;;;;;0.55;0.55;;;10.40;1.00;;;;;;5055116;28;20443;-69
2022/11/09 00:30:22;;;;;;;1.83;0.73;;;10.40;1.00;;;;;;5066755;28;20861;-69
2022/11/09 00:32:49;;;;;;;0.70;0.70;;;10.40;1.00;;;;;;5065644;28;20424;-69
2022/11/09 00:35:19;;;;;;;0.70;0.68;;;10.40;1.00;;;;;;5057649;28;20433;-69
2022/11/09 00:37:49;;;;;;;0.75;0.75;;;10.30;1.10;;;;;;5067362;28;20427;-69
2022/11/09 00:40:19;;;;;;;0.70;0.60;;;10.30;18.90;;;;;;5058041;28;20516;-70
2022/11/09 00:42:46;;;;;;;2.60;0.80;;;10.30;40.70;;;;;;5054578;28;20771;-70
2022/11/09 00:45:12;;;;;;;0.90;0.70;;;10.30;83.80;;;;;;5059387;28;20501;-69
2022/11/09 00:47:41;;;;;;;0.55;0.55;;;10.30;99.90;;;;;;5064525;28;20423;-69
2022/11/09 00:50:08;;;;;;;0.65;0.65;;;10.40;99.90;;;;;;5059771;28;20508;-70
2022/11/09 00:52:35;;;;;;;1.40;0.60;;;10.40;99.90;;;;;;5068245;28;20435;-70
2022/11/09 00:55:02;;;;;;;0.70;0.60;;;10.30;99.90;;;;;;5062160;28;20442;-69
2022/11/09 00:57:32;;;;;;;1.15;0.77;;;10.40;99.90;;;;;;5060688;28;20433;-70
2022/11/09 00:59:58;;;;;;;0.70;0.70;;;10.40;99.90;;;;;;5070056;28;20419;-69
2022/11/09 01:02:25;;;;;;;0.55;0.55;;;10.50;99.90;;;;;;5060696;28;20436;-70
2022/11/09 01:04:54;;;;;;;0.90;0.60;;;10.50;99.90;;;;;;5055292;28;20529;-70
2022/11/09 01:07:20;;;;;;;0.60;0.60;;;10.50;99.90;;;;;;5066553;28;20426;-70
2022/11/09 01:09:47;;;;;;;0.80;0.70;;;10.50;99.90;;;;;;5072433;28;20423;-70
2022/11/09 01:12:14;;;;;;;0.73;0.73;;;10.60;99.90;;;;;;5071324;28;20433;-70
2022/11/09 01:14:40;;;;;;;0.55;0.55;;;10.60;99.90;;;;;;5054584;28;20939;-70
2022/11/09 01:17:07;;;;;;;0.68;0.68;;;10.70;99.90;;;;;;5061510;28;20459;-70
2022/11/09 01:19:34;;;;;;;0.45;0.45;;;10.70;99.90;;;;;;5060010;28;21710;-70
2022/11/09 01:22:01;;;;;;;0.57;0.57;;;10.70;99.90;;;;;;5072220;28;20439;-70
2022/11/09 01:24:27;;;;;;;0.52;0.52;;;10.80;99.90;;;;;;5070395;28;20484;-70
2022/11/09 01:26:54;;;;;;;0.82;0.82;;;10.80;99.90;;;;;;5070871;28;20485;-69
2022/11/09 01:29:21;;;;;;;0.68;0.68;;;10.90;99.90;;;;;;5062015;28;20434;-69
2022/11/09 01:31:47;;;;;;;0.63;0.63;;;10.80;99.90;;;;;;5071347;28;20438;-70
2022/11/09 01:34:16;;;;;;;0.50;0.50;;;10.90;99.90;;;;;;5070054;28;20432;-70
2022/11/09 01:36:49;;;;;;;0.50;0.50;;;10.90;99.90;;;;;;5062860;28;20453;-70
2022/11/09 01:39:18;;;;;;;0.50;0.50;;;10.90;99.90;;;;;;5066890;28;20437;-70
2022/11/09 01:41:45;;;;;;;0.82;0.52;;;10.90;99.90;;;;;;5065445;28;20541;-72
2022/11/09 01:44:18;;;;;;;0.55;0.55;;;11.00;99.90;;;;;;5069522;28;20434;-71
2022/11/09 01:47:00;;;;;;;2.08;0.80;;;11.00;99.90;;;;;;5066104;28;20963;-71
2022/11/09 01:49:33;;;;;;;0.40;0.40;;;11.00;99.90;;;;;;5066226;28;20481;-71
2022/11/09 01:52:28;;;;;;;0.43;0.43;;;11.00;99.90;;;;;;5068390;28;20439;-71
2022/11/09 01:55:08;;;;;;;0.60;0.60;;;11.00;99.90;;;;;;5068791;28;20443;-71
2022/11/09 01:57:40;;;;;;;0.57;0.57;;;11.00;99.90;;;;;;5059701;28;20451;-71
2022/11/09 02:00:13;;;;;;;0.80;0.80;;;11.00;99.90;;;;;;5067215;28;20435;-71
2022/11/09 02:02:54;;;;;;;1.00;0.47;;;11.00;99.90;;;;;;5064207;28;20475;-71
2022/11/09 02:05:25;;;;;;;0.60;0.60;;;11.00;99.90;;;;;;5056414;28;20436;-71
2022/11/09 02:07:52;;;;;;;0.88;0.65;;;11.00;99.90;;;;;;5071123;28;20423;-71
2022/11/09 02:10:26;;;;;;;0.68;0.60;;;11.00;99.90;;;;;;5068559;28;20435;-71
2022/11/09 02:12:53;;;;;;;0.50;0.40;;;11.00;99.90;;;;;;5069275;28;20423;-71
2022/11/09 02:15:21;;;;;;;0.85;0.70;;;11.10;99.90;;;;;;5068441;28;20466;-71
2022/11/09 02:17:52;;;;;;;0.30;0.30;;;11.10;99.90;;;;;;5062780;28;20436;-71
2022/11/09 02:20:19;;;;;;;0.60;0.60;;;11.10;99.90;;;;;;5069270;28;20432;-72
2022/11/09 02:22:49;;;;;;;2.30;0.70;;;11.10;99.90;;;;;;5060569;28;20440;-72
2022/11/09 02:25:16;;;;;;;0.57;0.47;;;11.10;99.90;;;;;;5068102;28;20424;-72
2022/11/09 02:27:44;;;;;;;0.73;0.73;;;11.20;99.90;;;;;;5063774;28;20497;-72
2022/11/09 02:30:12;;;;;;;0.75;0.75;;;11.20;99.90;;;;;;5070234;28;20502;-72
2022/11/09 02:32:39;;;;;;;0.73;0.60;;;11.20;99.90;;;;;;5068186;28;20428;-71
2022/11/09 02:35:06;;;;;;;0.70;0.70;;;11.20;99.90;;;;;;5061167;28;20434;-72
2022/11/09 02:37:47;;;;;;;0.50;0.50;;;11.20;99.90;;;;;;5057956;28;20857;-71
2022/11/09 02:40:21;;;;;;;0.38;0.38;;;11.20;99.90;;;;;;5062905;28;20439;-72
2022/11/09 02:42:48;;;;;;;0.30;0.30;;;11.30;99.90;;;;;;5062080;28;20907;-71
2022/11/09 02:45:15;;;;;;;0.40;0.40;;;11.30;99.90;;;;;;5066067;28;20434;-71
2022/11/09 02:47:41;;;;;;;0.33;0.33;;;11.30;99.90;;;;;;5055832;28;20428;-72
2022/11/09 02:50:08;;;;;;;0.40;0.30;;;11.30;99.90;;;;;;5069460;28;20477;-72
2022/11/09 02:52:35;;;;;;;1.40;0.40;;;11.30;99.90;;;;;;5065492;28;20431;-72
2022/11/09 02:55:02;;;;;;;0.40;0.40;;;11.40;99.90;;;;;;5066119;28;21018;-72
2022/11/09 02:57:29;;;;;;;0.35;0.28;;;11.40;99.90;;;;;;5059677;28;20436;-73
2022/11/09 02:59:56;;;;;;;0.33;0.30;;;11.40;99.90;;;;;;5075571;28;20429;-72
2022/11/09 03:02:22;;;;;;;0.50;0.50;;;11.40;99.90;;;;;;5065917;28;20795;-72
2022/11/09 03:04:49;;;;;;;0.32;0.32;;;11.40;99.90;;;;;;5060998;28;20480;-73
2022/11/09 03:07:16;;;;;;;0.30;0.30;;;11.40;99.90;;;;;;5066495;28;20436;-73
2022/11/09 03:09:44;;;;;;;0.25;0.25;;;11.50;99.90;;;;;;5070321;28;20953;-73
2022/11/09 03:12:29;;;;;;;0.40;0.30;;;11.50;99.90;;;;;;5059458;28;20431;-73
2022/11/09 03:14:58;;;;;;;0.20;0.20;;;11.50;99.90;;;;;;5069779;28;20427;-73
2022/11/09 03:17:28;;;;;;;0.25;0.25;;;11.50;99.90;;;;;;5055636;28;20434;-73
2022/11/09 03:19:55;;;;;;;0.40;0.40;;;11.50;99.90;;;;;;5062195;28;20435;-73
2022/11/09 03:22:21;;;;;;;0.30;0.30;;;11.50;99.90;;;;;;5061230;28;20437;-73
2022/11/09 03:24:48;;;;;;;1.20;0.38;;;11.50;99.90;;;;;;5074898;28;20779;-73
2022/11/09 03:27:15;;;;;;;0.35;0.35;;;11.50;99.90;;;;;;5069461;28;20433;-73
2022/11/09 03:29:42;;;;;;;0.30;0.30;;;11.50;99.90;;;;;;5054834;28;20451;-73
2022/11/09 03:32:09;;;;;;;0.40;0.40;;;11.50;99.90;;;;;;5069951;28;20431;-73
2022/11/09 03:34:36;;;;;;;0.60;0.40;;;11.50;99.90;;;;;;5066842;28;20428;-73
2022/11/09 03:37:03;;;;;;;0.65;0.55;;;11.50;99.90;;;;;;5063100;28;20427;-74
2022/11/09 03:39:29;;;;;;;0.50;0.50;;;11.40;99.90;;;;;;5066658;28;20435;-73
2022/11/09 03:41:56;;;;;;;0.43;0.43;;;11.40;99.90;;;;;;5066778;28;20512;-73
2022/11/09 03:44:23;;;;;;;0.80;0.80;;;11.40;99.90;;;;;;5065595;28;20437;-72
2022/11/09 03:46:50;;;;;;;1.70;0.82;;;11.40;99.90;;;;;;5067833;28;20446;-73
2022/11/09 03:49:16;;;;;;;0.70;0.70;;;11.40;99.90;;;;;;5070760;28;20428;-73
2022/11/09 03:51:43;;;;;;;0.77;0.77;;;11.40;99.90;;;;;;5068277;28;20436;-73
2022/11/09 03:54:10;;;;;;;0.57;0.57;;;11.40;99.90;;;;;;5068123;28;20805;-73
2022/11/09 03:56:36;;;;;;;0.55;0.55;;;11.40;99.90;;;;;;5066742;28;20431;-73
2022/11/09 03:59:06;;;;;;;0.50;0.50;;;11.40;99.90;;;;;;5068998;28;20955;-73
2022/11/09 04:01:33;;;;;;;0.80;0.80;;;11.40;99.90;;;;;;5066237;28;20435;-73
2022/11/09 04:04:00;;;;;;;0.50;0.50;;;11.40;99.90;;;;;;5068985;28;20434;-73
2022/11/09 04:06:27;;;;;;;0.45;0.45;;;11.40;99.90;;;;;;5072961;28;20898;-73
2022/11/09 04:08:54;;;;;;;1.67;0.40;;;11.40;99.90;;;;;;5063368;28;20419;-73
2022/11/09 04:11:23;;;;;;;0.50;0.50;;;11.40;99.90;;;;;;5051341;28;20433;-73
2022/11/09 04:13:50;;;;;;;0.50;0.30;;;11.40;99.90;;;;;;5063628;28;20429;-73
2022/11/09 04:16:16;;;;;;;0.35;0.35;;;11.40;99.90;;;;;;5065854;28;20427;-73
2022/11/09 04:18:43;;;;;;;0.50;0.50;;;11.40;99.90;;;;;;5069729;28;20428;-72
2022/11/09 04:21:10;;;;;;;0.47;0.47;;;11.30;99.90;;;;;;5065764;28;20435;-72
2022/11/09 04:23:36;;;;;;;0.25;0.25;;;11.30;99.90;;;;;;5065747;28;20431;-72
2022/11/09 04:26:03;;;;;;;0.30;0.30;;;11.30;99.90;;;;;;5064259;28;20519;-72
2022/11/09 04:28:30;;;;;;;0.80;0.80;;;11.30;99.90;;;;;;5069493;28;20489;-72
2022/11/09 04:31:00;;;;;;;0.80;0.80;;;11.30;99.90;;;;;;5062608;28;20423;-72
2022/11/09 04:33:27;;;;;;;0.82;0.50;;;11.30;99.90;;;;;;5066917;28;20427;-72
2022/11/09 04:35:54;;;;;;;0.90;0.90;;;11.30;99.90;;;;;;5067629;28;20967;-73
2022/11/09 04:38:21;;;;;;;0.80;0.80;;;11.30;99.90;;;;;;5069749;28;20972;-73
2022/11/09 04:40:47;;;;;;;0.93;0.93;;;11.30;99.90;;;;;;5065029;28;20433;-72
2022/11/09 04:43:14;;;;;;;0.93;0.82;;;11.30;99.90;;;;;;5059408;28;20485;-73
2022/11/09 04:45:41;;;;;;;0.77;0.75;;;11.20;99.90;;;;;;5061036;28;20431;-72
2022/11/09 04:48:10;;;;;;;0.90;0.90;;;11.20;99.90;;;;;;5069783;28;20438;-72
2022/11/09 04:50:38;;;;;;;0.63;0.63;;;11.20;99.90;;;;;;5068379;28;20479;-73
2022/11/09 04:53:10;;;;;;;1.55;1.17;;;11.20;99.90;;;;;;5049378;28;20433;-72
2022/11/09 04:55:37;;;;;;;1.05;1.00;;;11.30;99.90;;;;;;5065679;28;20804;-73
2022/11/09 04:58:04;;;;;;;1.13;0.98;;;11.20;99.90;;;;;;5066773;28;20435;-73
2022/11/09 05:00:32;;;;;;;0.95;0.95;;;11.20;99.90;;;;;;5070703;28;20427;-73
2022/11/09 05:03:03;;;;;;;0.80;0.80;;;11.20;99.90;;;;;;5068606;28;20813;-73
2022/11/09 05:05:33;;;;;;;1.08;1.08;;;11.20;99.90;;;;;;5068044;28;20427;-73
2022/11/09 05:08:01;;;;;;;1.37;1.37;;;11.20;99.90;;;;;;5068559;28;20450;-73
2022/11/09 05:10:28;;;;;;;1.45;1.35;;;11.20;99.90;;;;;;5069285;28;20432;-72
2022/11/09 05:13:13;;;;;;;1.70;1.08;;;11.20;99.90;;;;;;5059338;28;20430;-73
2022/11/09 05:15:40;;;;;;;1.45;1.17;;;11.20;99.90;;;;;;5048254;28;20429;-73
2022/11/09 05:18:08;;;;;;;1.03;1.03;;;11.10;99.90;;;;;;5049518;28;20792;-74
2022/11/09 05:20:35;;;;;;;1.43;1.30;;;11.10;99.90;;;;;;5055521;28;20441;-73
2022/11/09 05:25:48;;;;;;;1.30;1.20;;;11.10;99.90;;;;;;5069468;28;20519;-73
2022/11/09 05:28:15;;;;;;;1.02;1.02;;;11.10;99.90;;;;;;5069482;28;20431;-73
2022/11/09 05:30:41;;;;;;;1.13;1.13;;;11.10;99.90;;;;;;5064138;28;20424;-73
2022/11/09 05:33:08;;;;;;;1.08;1.08;;;11.10;99.90;;;;;;5060652;28;20925;-73
2022/11/09 05:35:35;;;;;;;1.55;1.25;;;11.10;99.90;;;;;;5061238;28;20531;-73
2022/11/09 05:38:02;;;;;;;1.70;1.30;;;11.10;99.90;;;;;;5061095;28;20427;-72
2022/11/09 05:40:31;;;;;;;1.15;1.13;;;11.10;99.90;;;;;;5060691;28;21056;-72
2022/11/09 05:42:57;;;;;;;1.27;0.95;;;11.10;99.90;;;;;;5058724;28;20508;-72
2022/11/09 05:45:24;;;;;;;1.30;1.20;;;11.10;99.90;;;;;;5065453;28;20423;-72
2022/11/09 05:48:08;;;;;;;1.48;1.38;;;11.10;99.90;;;;;;5059878;28;20876;-71
2022/11/09 05:50:34;;;;;;;1.52;1.40;;;11.10;99.90;;;;;;5053514;28;20978;-72
2022/11/09 05:53:01;;;;;;;1.60;1.50;;;11.10;99.90;;;;;;5053299;28;20437;-72
2022/11/09 05:55:31;;;;;;;2.20;1.40;;;11.10;99.90;;;;;;5062588;28;20498;-72
2022/11/09 05:57:58;;;;;;;1.30;1.30;;;11.20;99.90;;;;;;5052185;28;20444;-72
2022/11/09 06:00:35;;;;;;;2.00;1.42;;;11.10;99.90;;;;;;5058715;28;20475;-72
2022/11/09 06:03:03;;;;;;;2.10;1.42;;;11.20;99.90;;;;;;5060132;28;20431;-72
2022/11/09 06:05:35;;;;;;;2.10;1.47;;;11.10;99.90;;;;;;5052608;28;20433;-72
2022/11/09 06:08:15;;;;;;;1.10;1.10;;;11.10;99.90;;;;;;5057434;28;20515;-73
2022/11/09 06:10:42;;;;;;;3.10;1.35;;;11.20;99.90;;;;;;5067616;28;20474;-74
2022/11/09 06:13:09;;;;;;;1.50;1.40;;;11.10;99.90;;;;;;5068332;28;20427;-73
2022/11/09 06:15:38;;;;;;;1.40;1.30;;;11.10;99.90;;;;;;5061530;28;20431;-73
2022/11/09 06:18:05;;;;;;;1.15;1.15;;;11.10;99.90;;;;;;5068810;28;20490;-73
2022/11/09 06:20:32;;;;;;;1.70;1.60;;;11.10;99.90;;;;;;5059708;28;20433;-74
2022/11/09 06:23:01;;;;;;;1.45;1.35;;;11.10;99.90;;;;;;5069106;28;20493;-73
2022/11/09 06:25:31;;;;;;;1.20;1.10;;;11.10;99.90;;;;;;5068313;28;20511;-74
2022/11/09 06:27:58;;;;;;;1.77;1.67;;;11.10;99.90;;;;;;5065417;28;20483;-74
2022/11/09 06:30:25;;;;;;;1.45;1.40;;;11.10;99.90;;;;;;5065887;28;20528;-74
2022/11/09 06:33:00;;;;;;;3.05;1.65;;;11.20;99.90;;;;;;5065693;28;20465;-74
2022/11/09 06:35:28;;;;;;;1.50;1.40;;;11.20;99.90;;;;;;5065844;28;20432;-74
2022/11/09 06:37:58;;;;;;;1.73;1.52;;;11.20;99.90;;;;;;5050248;28;20427;-73
2022/11/09 06:40:26;;;;;;;1.23;1.23;;;11.20;99.90;;;;;;5064149;28;20909;-74
2022/11/09 06:42:58;;;;;;;1.73;1.63;;;11.10;99.90;;;;;;5059900;28;20798;-74
2022/11/09 06:45:29;;;;;;;1.77;1.55;;;11.20;99.90;;;;;;5061542;28;21017;-73
2022/11/09 06:48:01;;;;;;;2.40;1.42;;;11.20;99.90;;;;;;5058064;28;21131;-73
2022/11/09 06:50:30;;;;;;;1.55;1.55;;;11.20;99.90;;;;;;5057680;28;20815;-73
2022/11/09 06:52:59;;;;;;;1.50;0.95;;;11.20;99.90;;;;;;5056695;28;20435;-73
2022/11/09 06:55:27;;;;;;;1.58;1.48;;;11.20;99.90;;;;;;5066542;28;20433;-73
2022/11/09 06:57:54;;;;;;;1.73;1.43;;;11.20;99.90;;;;;;5055040;28;21060;-74
2022/11/09 07:00:22;;;;;;;1.52;1.42;;;11.20;99.90;;;;;;5058222;28;20521;-73
2022/11/09 07:02:51;;;;;;;1.70;1.60;;;11.20;99.90;;;;;;5059193;28;20431;-73
2022/11/09 07:05:18;;;;;;;1.50;1.30;;;11.20;99.90;;;;;;5077145;28;20918;-73
2022/11/09 07:07:45;;;;;;;1.42;1.38;;;11.30;99.90;;;;;;5068468;28;20892;-73
2022/11/09 07:10:12;;;;;;;1.65;1.55;;;11.20;99.90;;;;;;5060176;28;20437;-74
2022/11/09 07:12:38;;;;;;;1.63;1.55;;;11.30;99.90;;;;;;5057927;28;20489;-74
2022/11/09 07:15:06;;;;;;;1.30;1.20;;;11.30;99.90;;;;;;5060761;28;20431;-74
2022/11/09 07:17:33;;;;;;;1.90;1.80;;;11.30;99.90;;;;;;5058259;28;20433;-74
2022/11/09 07:20:00;;;;;;;1.83;1.53;;;11.40;99.90;;;;;;5066173;28;20492;-74
2022/11/09 07:22:27;;;;;;;1.50;1.40;;;11.40;99.90;;;;;;5057817;28;20796;-73
2022/11/09 07:24:54;;;;;;;1.45;1.45;;;11.40;99.90;;;;;;5061204;28;20845;-74
2022/11/09 07:27:22;;;;;;;1.35;1.25;;;11.40;99.90;;;;;;5058751;28;20423;-74
2022/11/09 07:29:59;;;;;;;1.27;1.20;;;11.40;99.90;;;;;;5057220;28;20559;-74
2022/11/09 07:32:35;;;;;;;1.65;1.55;;;11.50;99.90;;;;;;5067116;28;20497;-74
2022/11/09 07:35:22;;;;;;;1.38;1.27;;;11.50;99.90;;;;;;5078110;28;20430;-74
2022/11/09 07:37:58;;;;;;;1.48;1.30;;;11.50;99.90;;;;;;5056154;28;20431;-74
2022/11/09 07:40:24;;;;;;;1.35;1.25;;;11.50;99.90;;;;;;5064999;28;20483;-74
2022/11/09 07:42:51;;;;;;;1.13;1.13;;;11.50;99.90;;;;;;5064289;28;20435;-74
2022/11/09 07:45:18;;;;;;;1.58;1.48;;;11.50;99.90;;;;;;5061511;28;20487;-74
2022/11/09 07:47:44;;;;;;;1.40;1.30;;;11.50;99.90;;;;;;5078125;28;20438;-74
2022/11/09 07:50:11;;;;;;;1.73;1.63;;;11.60;99.90;;;;;;5072343;28;20431;-74
2022/11/09 07:52:38;;;;;;;1.83;1.73;;;11.60;99.90;;;;;;5066844;28;20489;-74
2022/11/09 07:55:05;;;;;;;3.80;2.20;;;11.60;99.90;;;;;;5058762;28;20435;-74
2022/11/09 07:57:32;;;;;;;1.80;1.70;;;11.60;99.90;;;;;;5056992;28;20428;-75
2022/11/09 07:59:59;;;;;;;1.95;1.85;;;11.60;99.90;;;;;;5061116;28;20444;-74
2022/11/09 08:02:25;;;;;;;1.73;1.63;;;11.60;99.90;;;;;;5072643;28;20430;-74
2022/11/09 08:04:52;;;;;;;2.05;1.95;;;11.60;99.90;;;;;;5065112;28;20446;-74
2022/11/09 08:07:22;;;;;;;1.85;1.75;;;11.60;99.90;;;;;;5068287;28;20575;-74
2022/11/09 08:09:49;;;;;;;1.58;1.48;;;11.60;99.90;;;;;;5062716;28;20442;-74
2022/11/09 08:12:15;;;;;;;1.42;1.38;;;11.60;99.90;;;;;;5063039;28;20429;-74
2022/11/09 08:14:45;;;;;;;1.60;1.52;;;11.60;99.90;;;;;;5069005;28;20423;-74
2022/11/09 08:17:12;;;;;;;1.90;1.70;;;11.60;99.90;;;;;;5072242;28;20507;-73
2022/11/09 08:19:38;;;;;;;1.45;1.40;;;11.60;99.90;;;;;;5068111;28;20510;-74
2022/11/09 08:22:05;;;;;;;1.45;1.35;;;11.60;99.90;;;;;;5062314;28;20481;-73
2022/11/09 08:24:32;;;;;;;1.45;1.20;;;11.60;99.90;;;;;;5060203;28;20438;-73
2022/11/09 08:26:59;;;;;;;1.40;1.30;;;11.60;99.90;;;;;;5053799;28;20429;-73
2022/11/09 08:29:26;;;;;;;0.73;0.73;;;11.60;99.90;;;;;;5058529;28;20458;-73
2022/11/09 08:31:52;;;;;;;0.70;0.70;;;11.60;99.90;;;;;;5054833;28;20433;-73
2022/11/09 08:34:21;;;;;;;1.10;1.10;;;11.60;99.90;;;;;;5059563;28;20474;-74
2022/11/09 08:36:48;;;;;;;1.00;1.00;;;11.70;99.90;;;;;;5054984;28;20454;-73
2022/11/09 08:39:14;;;;;;;0.95;0.82;;;11.70;99.90;;;;;;5064802;28;20435;-73
2022/11/09 08:41:41;;;;;;;0.60;0.60;;;11.80;99.90;;;;;;5057123;28;20463;-74
2022/11/09 08:44:08;;;;;;;0.52;0.52;;;11.80;99.90;;;;;;5059026;28;20450;-74
2022/11/09 08:46:37;;;;;;;1.10;1.10;;;11.80;99.90;;;;;;5065187;28;20438;-74
2022/11/09 08:49:10;;;;;;;0.50;0.50;;;11.80;99.90;;;;;;5057820;28;20427;-73
2022/11/09 08:51:36;;;;;;;0.80;0.63;;;11.90;99.90;;;;;;5063095;28;20427;-74
2022/11/09 08:54:03;;;;;;;1.00;0.80;;;11.90;99.90;;;;;;5052650;28;20833;-74
2022/11/09 08:56:30;;;;;;;0.65;0.65;;;12.00;99.90;;;;;;5055599;28;20435;-74
2022/11/09 08:58:56;;;;;;;0.55;0.55;;;12.00;99.90;;;;;;5059458;28;20429;-74
2022/11/09 09:01:24;;;;;;;1.95;0.95;;;12.00;99.90;;;;;;5052311;28;20768;-74
2022/11/09 09:03:51;;;;;;;0.60;0.60;;;12.00;99.90;;;;;;5056428;28;20468;-74
2022/11/09 09:06:17;;;;;;;0.70;0.70;;;12.30;99.90;;;;;;5058961;28;20423;-74
2022/11/09 09:08:44;;;;;;;1.70;0.43;;;12.40;25.70;;;;;;5064060;28;20427;-75
2022/11/09 09:11:15;;;;;;;0.52;0.52;;;12.50;1.00;;;;;;5067861;28;20421;-73
2022/11/09 09:13:42;;;;;;;0.60;0.60;;;12.60;1.00;;;;;;5050748;28;20823;-73
2022/11/09 09:16:14;;;;;;;0.50;0.50;;;12.80;1.00;;;;;;5056523;28;20435;-73
2022/11/09 09:18:41;;;;;;;0.43;0.43;;;12.80;1.00;;;;;;5064640;28;20973;-73
2022/11/09 09:21:09;;;;;;;1.20;0.40;;;12.90;1.00;;;;;;5070468;28;20979;-73
2022/11/09 09:23:36;;;;;;;0.73;0.70;;;13.00;99.90;;;;;;5068981;28;20508;-73
2022/11/09 09:26:03;;;;;;;0.40;0.37;;;12.80;99.90;;;;;;5069160;28;20428;-73
2022/11/09 09:28:30;;;;;;;0.32;0.32;;;12.90;1.00;;;;;;5062548;28;20454;-73
2022/11/09 09:31:00;;;;;;;0.40;0.40;;;12.90;1.00;;;;;;5072218;28;20484;-72
2022/11/09 09:33:27;;;;;;;1.10;0.35;;;12.80;99.90;;;;;;5067508;28;20462;-73
2022/11/09 09:35:57;;;;;;;0.80;0.40;;;12.90;1.00;;;;;;5064453;28;20442;-72
2022/11/09 09:38:25;;;;;;;0.30;0.30;;;12.90;1.00;;;;;;5066526;28;20921;-73
2022/11/09 09:41:16;;;;;;;0.50;0.40;;;12.90;99.90;;;;;;5064967;28;20439;-73
2022/11/09 09:43:46;;;;;;;0.47;0.38;;;12.90;99.90;;;;;;5058496;28;20429;-72
2022/11/09 09:46:20;;;;;;;0.20;0.20;;;12.90;99.90;;;;;;5059754;28;20434;-72
2022/11/09 09:48:52;;;;;;;0.30;0.30;;;12.90;99.90;;;;;;5067406;28;20431;-73
2022/11/09 09:51:38;;;;;;;0.40;0.40;;;13.10;99.90;;;;;;5065721;28;20438;-72
2022/11/09 09:54:13;;;;;;;0.20;0.20;;;13.10;1.00;;;;;;5066521;28;20431;-72
2022/11/09 09:56:43;;;;;;;0.28;0.20;;;13.30;99.90;;;;;;5061922;28;20509;-72
2022/11/09 09:59:25;;;;;;;0.20;0.20;;;13.30;99.90;;;;;;5070733;28;20528;-73
2022/11/09 10:01:52;;;;;;;0.35;0.35;;;13.40;99.90;;;;;;5067413;28;20438;-73
2022/11/09 10:04:21;;;;;;;0.70;0.30;;;13.30;99.90;;;;;;5069797;28;20962;-72
2022/11/09 10:06:48;;;;;;;0.40;0.40;;;13.30;50.90;;;;;;5068573;28;20455;-72
2022/11/09 10:09:41;;;;;;;0.13;0.13;;;13.30;97.00;;;;;;5067380;28;20481;-72
2022/11/09 10:12:36;;;;;;;0.20;0.20;;;13.30;94.40;;;;;;5065261;28;20428;-72
2022/11/09 10:15:28;;;;;;;0.30;0.30;;;13.30;42.50;;;;;;5059889;28;20424;-72
2022/11/09 10:18:30;;;;;;;0.20;0.20;;;13.60;1.00;;;;;;5061662;28;20430;-73
2022/11/09 10:21:19;;;;;;;0.20;0.20;;;13.80;9.10;;;;;;5044941;28;20826;-74
2022/11/09 10:24:10;;;;;;;0.28;0.28;;;13.90;1.00;;;;;;5053068;28;20516;-73
2022/11/09 10:26:45;;;;;;;3.35;0.35;;;14.10;1.00;;;;;;5064238;28;20438;-73
2022/11/09 10:29:30;;;;;;;0.60;0.60;;;14.20;99.90;;;;;;5056071;28;20423;-73
2022/11/09 10:32:11;;;;;;;0.20;0.20;;;14.20;99.90;;;;;;5065521;28;20423;-73
2022/11/09 10:35:00;;;;;;;0.43;0.30;;;14.70;99.90;;;;;;5073013;28;20431;-73
2022/11/09 10:37:35;;;;;;;0.20;0.20;;;15.00;46.10;;;;;;5047386;28;20433;-73
2022/11/09 10:40:08;;;;;;;0.20;0.20;;;15.30;1.00;;;;;;5063415;28;20442;-72
2022/11/09 10:42:34;;;;;;;0.20;0.20;;;15.50;1.00;;;;;;5069126;28;20432;-73
2022/11/09 10:45:16;;;;;;;0.30;0.30;;;15.60;1.00;;;;;;5090394;28;20422;-73
2022/11/09 10:47:51;;;;;;;0.20;0.20;;;15.70;1.00;;;;;;5084871;28;20493;-74
2022/11/09 10:50:21;;;;;;;0.20;0.20;;;15.40;1.00;;;;;;5071275;28;20424;-74
2022/11/09 10:52:49;;;;;;;0.20;0.20;;;15.50;1.00;;;;;;5073239;28;20442;-74
2022/11/09 10:55:27;;;;;;;0.20;0.20;;;15.70;1.00;;;;;;5074455;28;20764;-73
2022/11/09 10:58:21;;;;;;;0.40;0.30;;;15.80;1.00;;;;;;5068877;28;20424;-74
2022/11/09 11:01:01;;;;;;;0.20;0.20;;;16.00;1.00;;;;;;5063714;28;20429;-74
2022/11/09 11:03:34;;;;;;;1.55;0.38;;;16.10;1.00;;;;;;5088330;28;20438;-73
2022/11/09 11:06:16;;;;;;;0.30;0.30;;;16.00;1.00;;;;;;5064612;28;20428;-73
2022/11/09 11:08:46;;;;;;;0.40;0.40;;;15.90;1.00;;;;;;5081593;28;20873;-73
2022/11/09 11:11:20;;;;;;;0.30;0.30;;;15.60;1.00;;;;;;5073645;28;20427;-74
2022/11/09 11:14:27;;;;;;;0.30;0.30;;;15.60;1.00;;;;;;5073688;28;20458;-73
2022/11/09 11:16:55;;;;;;;1.00;0.50;;;15.70;1.00;;;;;;5075941;28;20426;-74
2022/11/09 11:19:35;;;;;;;0.30;0.30;;;15.30;1.00;;;;;;5092611;28;20434;-74
2022/11/09 11:22:21;;;;;;;0.20;0.20;;;15.10;1.00;;;;;;5065790;28;20435;-74
2022/11/09 11:24:57;;;;;;;0.28;0.28;;;14.90;1.00;;;;;;5066796;28;20431;-74
2022/11/09 11:27:38;;;;;;;0.30;0.30;;;14.90;1.00;;;;;;5065951;28;20902;-74
2022/11/09 11:30:27;;;;;;;0.38;0.38;;;14.80;1.00;;;;;;5065384;28;20423;-74
2022/11/09 11:32:57;;;;;;;0.20;0.20;;;14.80;1.00;;;;;;5066350;28;20922;-74
2022/11/09 11:35:33;;;;;;;0.80;0.30;;;15.00;1.00;;;;;;5062057;28;20428;-73
2022/11/09 11:38:21;;;;;;;0.30;0.30;;;15.40;1.00;;;;;;5064810;28;20798;-73
2022/11/09 11:40:54;;;;;;;0.20;0.20;;;16.00;1.00;;;;;;5073963;28;20512;-73
2022/11/09 11:43:53;;;;;;;0.20;0.20;;;16.20;1.00;;;;;;5063195;28;20940;-75
2022/11/09 11:46:38;;;;;;;0.63;0.57;;;16.30;1.00;;;;;;5062004;28;20439;-74
2022/11/09 11:49:30;;;;;;;0.30;0.30;;;16.30;1.00;;;;;;5064092;28;20431;-75
2022/11/09 11:52:24;;;;;;;0.98;0.30;;;16.00;1.00;;;;;;5070505;28;20959;-75
2022/11/09 11:55:13;;;;;;;0.50;0.50;;;15.80;1.00;;;;;;5050871;28;20433;-74
2022/11/09 11:58:10;;;;;;;0.30;0.30;;;15.70;1.00;;;;;;5068870;28;20458;-74
2022/11/09 12:01:10;;;;;;;1.80;0.55;;;15.40;1.00;;;;;;5058428;28;20439;-75
2022/11/09 12:04:10;;;;;;;0.30;0.30;;;15.20;1.00;;;;;;5053490;28;20424;-74
2022/11/09 12:06:51;;;;;;;0.40;0.40;;;15.20;1.00;;;;;;5060323;28;20435;-75
2022/11/09 12:09:36;;;;;;;0.40;0.20;;;15.30;1.00;;;;;;5063622;28;20522;-75
2022/11/09 12:12:23;;;;;;;0.28;0.28;;;15.50;1.00;;;;;;5050315;28;20433;-74
2022/11/09 12:15:18;;;;;;;0.32;0.32;;;15.60;1.00;;;;;;5067781;28;20453;-75
2022/11/09 12:18:12;;;;;;;0.50;0.50;;;15.80;1.00;;;;;;5070343;28;20443;-75
2022/11/09 12:21:10;;;;;;;0.40;0.40;;;16.00;1.00;;;;;;5077930;28;20430;-75
2022/11/09 12:23:58;;;;;;;0.20;0.20;;;16.00;1.00;;;;;;5067234;28;20427;-76
2022/11/09 12:26:33;;;;;;;0.38;0.30;;;15.90;1.00;;;;;;5064858;28;20785;-75
2022/11/09 12:29:24;;;;;;;0.30;0.30;;;16.00;1.00;;;;;;5062339;28;20431;-75
2022/11/09 12:32:02;;;;;;;0.43;0.43;;;16.30;1.00;;;;;;5066176;28;20893;-74
2022/11/09 12:35:05;;;;;;;0.30;0.30;;;16.40;1.00;;;;;;5070010;28;20449;-74
2022/11/09 12:37:42;;;;;;;0.50;0.30;;;16.60;1.00;;;;;;5053534;28;20504;-74
2022/11/09 12:40:21;;;;;;;0.30;0.30;;;16.50;1.00;;;;;;5067349;28;20696;-74
2022/11/09 12:43:19;;;;;;;0.30;0.30;;;16.50;1.00;;;;;;5065602;28;20482;-74
2022/11/09 12:45:50;;;;;;;0.40;0.40;;;16.40;1.00;;;;;;5057491;28;20423;-74
2022/11/09 12:48:19;;;;;;;0.70;0.60;;;16.30;1.00;;;;;;5078962;28;20444;-75
2022/11/09 12:50:46;;;;;;;0.40;0.40;;;16.10;1.00;;;;;;5052821;28;20427;-75
2022/11/09 12:53:14;;;;;;;0.30;0.30;;;15.90;1.00;;;;;;5062949;28;20429;-75
2022/11/09 12:55:52;;;;;;;0.20;0.20;;;15.80;1.00;;;;;;5063060;28;20435;-74
2022/11/09 12:58:24;;;;;;;1.23;0.40;;;15.80;1.00;;;;;;5069808;28;20450;-74
2022/11/09 13:00:54;;;;;;;0.55;0.45;;;15.50;1.00;;;;;;5087713;28;20419;-74
2022/11/09 13:03:33;;;;;;;0.40;0.20;;;15.50;1.00;;;;;;5058545;28;20425;-75
2022/11/09 13:06:09;;;;;;;0.57;0.40;;;15.50;1.00;;;;;;5075368;28;20430;-74
2022/11/09 13:08:37;;;;;;;0.68;0.38;;;15.60;1.00;;;;;;5070136;28;20484;-74
2022/11/09 13:11:09;;;;;;;0.20;0.20;;;15.60;1.00;;;;;;5061107;28;20570;-74
2022/11/09 13:13:36;;;;;;;0.20;0.20;;;15.70;1.00;;;;;;5055002;28;20423;-74
2022/11/09 13:16:18;;;;;;;0.70;0.47;;;15.70;1.00;;;;;;5073919;28;20561;-74